Time;durP1;ratioP1;P1;durP2;ratioP2;P2;SDS_P1;SDS_P2;PMS_P1;PMS_P2;Temp;Humidity;BMP_temperature;BMP_pressure;BME280_temperature;BME280_humidity;BME280_pressure;Samples;Min_cycle;Max_cycle;Signal;HPM_P1;HPM_P2
2022/01/12 00:00:18;;;;;;;12.38;7.80;;;;;;;;;;5084202;28;20038;-48
2022/01/12 00:02:44;;;;;;;15.48;9.07;;;;;;;;;;5084626;28;20376;-52
2022/01/12 00:05:10;;;;;;;13.70;8.50;;;;;;;;;;5085431;28;20045;-51
2022/01/12 00:07:36;;;;;;;14.15;9.10;;;;;;;;;;5086883;28;20038;-48
2022/01/12 00:10:03;;;;;;;16.17;9.40;;;;;;;;;;5095298;28;20023;-49
2022/01/12 00:12:29;;;;;;;14.60;9.00;;;;;;;;;;5097674;28;20027;-51
2022/01/12 00:14:55;;;;;;;15.63;8.77;;;;;;;;;;5084908;28;20032;-50
2022/01/12 00:17:21;;;;;;;15.23;8.77;;;;;;;;;;5084990;28;20491;-51
2022/01/12 00:19:48;;;;;;;15.23;9.05;;;;;;;;;;5093016;28;20442;-51
2022/01/12 00:22:14;;;;;;;13.63;9.02;;;;;;;;;;5105024;28;20425;-49
2022/01/12 00:35:38;;;;;;;14.57;8.43;;;;;;;;;;5103101;28;20549;-52
2022/01/12 00:38:04;;;;;;;14.20;8.75;;;;;;;;;;5104862;28;20035;-48
2022/01/12 00:40:30;;;;;;;13.43;8.18;;;;;;;;;;5108360;28;20028;-47
2022/01/12 00:42:56;;;;;;;15.75;9.10;;;;;;;;;;5096911;28;20203;-48
2022/01/12 00:45:22;;;;;;;16.38;9.25;;;;;;;;;;5075502;28;20038;-51
2022/01/12 00:47:48;;;;;;;15.00;8.90;;;;;;;;;;5088556;28;20101;-48
2022/01/12 00:50:15;;;;;;;17.67;10.02;;;;;;;;;;5088691;28;20040;-48
2022/01/12 00:52:41;;;;;;;14.88;8.63;;;;;;;;;;5088333;28;20105;-48
2022/01/12 00:55:07;;;;;;;14.02;8.20;;;;;;;;;;5090102;28;20201;-49
2022/01/12 00:57:34;;;;;;;12.63;8.38;;;;;;;;;;5074487;28;20028;-48
2022/01/12 01:00:01;;;;;;;13.35;7.57;;;;;;;;;;5088261;28;20275;-49
2022/01/12 01:02:27;;;;;;;13.82;7.70;;;;;;;;;;5087888;28;20039;-50
2022/01/12 01:04:53;;;;;;;12.15;7.05;;;;;;;;;;5088975;28;20024;-48
2022/01/12 01:07:19;;;;;;;13.75;7.28;;;;;;;;;;5108650;28;20035;-49
2022/01/12 01:09:55;;;;;;;12.07;7.65;;;;;;;;;;5107880;28;20460;-48
2022/01/12 01:12:21;;;;;;;10.50;6.78;;;;;;;;;;5094748;28;20024;-48
2022/01/12 01:15:02;;;;;;;12.73;8.00;;;;;;;;;;5086740;28;20059;-47
2022/01/12 01:25:37;;;;;;;10.85;6.63;;;;;;;;;;5086552;28;20062;-49
2022/01/12 01:28:04;;;;;;;11.20;7.05;;;;;;;;;;5087292;28;20054;-49
2022/01/12 01:30:31;;;;;;;11.95;6.82;;;;;;;;;;5087572;28;20103;-50
2022/01/12 01:33:06;;;;;;;11.73;7.15;;;;;;;;;;5101399;28;20019;-51
2022/01/12 01:35:33;;;;;;;10.90;7.03;;;;;;;;;;5099212;28;20081;-48
2022/01/12 01:38:02;;;;;;;12.38;7.40;;;;;;;;;;5087177;28;20024;-50
2022/01/12 01:40:32;;;;;;;11.90;7.28;;;;;;;;;;5087604;28;20040;-48
2022/01/12 01:53:43;;;;;;;13.35;8.07;;;;;;;;;;5087791;28;20036;-48
2022/01/12 01:56:09;;;;;;;11.63;6.90;;;;;;;;;;5086714;28;20031;-50
2022/01/12 01:58:35;;;;;;;12.15;7.28;;;;;;;;;;5086340;28;20031;-50
2022/01/12 02:01:01;;;;;;;12.48;8.23;;;;;;;;;;5087390;28;20047;-48
2022/01/12 02:03:29;;;;;;;14.68;8.57;;;;;;;;;;5087255;28;20388;-49
2022/01/12 02:05:56;;;;;;;13.35;8.05;;;;;;;;;;5086248;28;20044;-48
2022/01/12 02:08:23;;;;;;;13.85;8.27;;;;;;;;;;5086985;28;20103;-52
2022/01/12 02:10:56;;;;;;;13.20;7.60;;;;;;;;;;5087152;28;20078;-49
2022/01/12 02:13:23;;;;;;;13.32;8.25;;;;;;;;;;5086745;28;20020;-49
2022/01/12 02:15:50;;;;;;;11.70;7.60;;;;;;;;;;5098199;28;20097;-49
2022/01/12 02:18:52;;;;;;;14.07;7.93;;;;;;;;;;5107350;28;20076;-48
2022/01/12 02:35:35;;;;;;;11.90;7.05;;;;;;;;;;5090673;28;20469;-50
2022/01/12 02:40:35;;;;;;;10.88;7.00;;;;;;;;;;5086520;28;20028;-49
2022/01/12 02:53:39;;;;;;;12.98;8.20;;;;;;;;;;5087217;28;20093;-48
2022/01/12 02:54:04;;;;;;;14.10;8.05;;;;;;;;;;5082977;28;20442;-50
2022/01/12 02:56:33;;;;;;;15.43;8.95;;;;;;;;;;5106373;28;20047;-49
2022/01/12 02:59:01;;;;;;;11.70;7.55;;;;;;;;;;5086485;28;20020;-50
2022/01/12 03:03:59;;;;;;;11.57;7.30;;;;;;;;;;5084828;28;20085;-52
2022/01/12 03:06:31;;;;;;;17.08;9.57;;;;;;;;;;5105656;28;20078;-52
2022/01/12 03:08:58;;;;;;;15.27;9.32;;;;;;;;;;5106017;28;20028;-48
2022/01/12 03:11:25;;;;;;;16.13;9.23;;;;;;;;;;5106002;28;20076;-50
2022/01/12 03:13:52;;;;;;;11.68;7.65;;;;;;;;;;5098360;28;20032;-51
2022/01/12 03:16:23;;;;;;;13.73;8.88;;;;;;;;;;5089263;28;20019;-49
2022/01/12 03:18:50;;;;;;;12.60;7.53;;;;;;;;;;5104892;28;20494;-48
2022/01/12 03:21:17;;;;;;;13.77;8.02;;;;;;;;;;5105748;28;20621;-48
2022/01/12 03:23:44;;;;;;;12.70;8.20;;;;;;;;;;5106478;28;20647;-52
2022/01/12 03:26:10;;;;;;;14.52;8.43;;;;;;;;;;5105045;28;20076;-50
2022/01/12 03:28:38;;;;;;;15.07;9.48;;;;;;;;;;5088789;28;20028;-48
2022/01/12 03:38:57;;;;;;;15.80;8.77;;;;;;;;;;5106056;28;20035;-48
2022/01/12 03:41:27;;;;;;;13.80;8.40;;;;;;;;;;5105577;28;20051;-49
2022/01/12 03:43:54;;;;;;;12.13;7.47;;;;;;;;;;5087609;28;20501;-48
2022/01/12 03:46:22;;;;;;;13.02;8.25;;;;;;;;;;5095366;28;20491;-51
2022/01/12 03:48:48;;;;;;;10.75;7.03;;;;;;;;;;5084965;28;20033;-49
2022/01/12 03:51:15;;;;;;;13.00;7.47;;;;;;;;;;5085163;28;20028;-50
2022/01/12 03:53:41;;;;;;;11.93;7.68;;;;;;;;;;5096857;28;20383;-51
2022/01/12 03:56:08;;;;;;;13.57;7.90;;;;;;;;;;5104073;28;20024;-49
2022/01/12 03:58:35;;;;;;;13.63;8.40;;;;;;;;;;5088475;28;20498;-48
2022/01/12 04:01:01;;;;;;;13.95;8.43;;;;;;;;;;5085195;28;20031;-49
2022/01/12 04:03:30;;;;;;;13.50;8.52;;;;;;;;;;5084443;28;20434;-49
2022/01/12 04:08:40;;;;;;;16.15;9.32;;;;;;;;;;5097278;28;20104;-51
2022/01/12 04:11:07;;;;;;;13.32;8.73;;;;;;;;;;5105454;28;20166;-49
2022/01/12 04:13:33;;;;;;;15.27;9.15;;;;;;;;;;5088396;28;20031;-52
2022/01/12 04:16:05;;;;;;;13.65;8.48;;;;;;;;;;5084908;28;20550;-51
2022/01/12 04:18:33;;;;;;;13.32;7.82;;;;;;;;;;5083655;28;20487;-49
2022/01/12 04:21:02;;;;;;;13.75;8.20;;;;;;;;;;5084564;28;20553;-49
2022/01/12 04:23:28;;;;;;;13.18;7.90;;;;;;;;;;5084665;28;20028;-48
2022/01/12 04:25:59;;;;;;;13.88;8.55;;;;;;;;;;5090904;28;20035;-50
2022/01/12 04:28:27;;;;;;;14.68;9.20;;;;;;;;;;5102627;28;20510;-52
2022/01/12 04:30:54;;;;;;;12.13;7.78;;;;;;;;;;5105280;28;20024;-48
2022/01/12 04:33:20;;;;;;;12.45;7.88;;;;;;;;;;5104986;28;20444;-50
2022/01/12 04:35:53;;;;;;;11.90;7.25;;;;;;;;;;5100014;28;20023;-50
2022/01/12 04:38:20;;;;;;;10.52;6.72;;;;;;;;;;5088189;28;20111;-49
2022/01/12 04:40:46;;;;;;;9.20;6.43;;;;;;;;;;5085695;28;20035;-49
2022/01/12 04:43:13;;;;;;;10.43;6.50;;;;;;;;;;5086032;28;20035;-47
2022/01/12 04:46:29;;;;;;;10.98;6.72;;;;;;;;;;5085151;28;20032;-48
2022/01/12 04:48:37;;;;;;;10.13;6.40;;;;;;;;;;5089112;28;20142;-50
2022/01/12 04:51:03;;;;;;;11.95;7.43;;;;;;;;;;5095594;28;20102;-49
2022/01/12 04:53:31;;;;;;;11.05;7.43;;;;;;;;;;5094992;28;20020;-50
2022/01/12 04:55:57;;;;;;;8.43;5.72;;;;;;;;;;5106370;28;20020;-48
2022/01/12 04:58:23;;;;;;;10.10;6.32;;;;;;;;;;5091387;28;20028;-50
2022/01/12 05:00:51;;;;;;;9.63;6.50;;;;;;;;;;5090462;28;20032;-48
2022/01/12 05:09:16;;;;;;;11.13;6.78;;;;;;;;;;5042560;28;20044;-49
2022/01/12 05:14:52;;;;;;;10.63;7.28;;;;;;;;;;5050349;28;20601;-49
2022/01/12 05:17:18;;;;;;;11.13;6.63;;;;;;;;;;5104838;28;20464;-50
2022/01/12 05:19:45;;;;;;;11.93;7.40;;;;;;;;;;5087056;28;20036;-48
2022/01/12 05:22:12;;;;;;;12.88;8.18;;;;;;;;;;5100769;28;20038;-48
2022/01/12 05:24:39;;;;;;;13.70;7.90;;;;;;;;;;5104486;28;20457;-48
2022/01/12 05:27:05;;;;;;;13.48;8.02;;;;;;;;;;5079646;28;20052;-50
2022/01/12 05:29:31;;;;;;;12.63;7.15;;;;;;;;;;5067634;28;20078;-48
2022/01/12 05:31:57;;;;;;;12.95;7.82;;;;;;;;;;5094157;28;20023;-47
2022/01/12 05:34:25;;;;;;;9.73;7.13;;;;;;;;;;5088357;28;20124;-48
2022/01/12 05:36:51;;;;;;;12.45;7.82;;;;;;;;;;5084495;28;20024;-48
2022/01/12 05:39:17;;;;;;;10.43;6.95;;;;;;;;;;5068735;28;20127;-49
2022/01/12 05:41:43;;;;;;;10.82;6.97;;;;;;;;;;5094698;28;20106;-50
2022/01/12 05:44:11;;;;;;;12.55;7.65;;;;;;;;;;5087178;28;20095;-48
2022/01/12 05:46:40;;;;;;;12.20;7.70;;;;;;;;;;5088150;28;20093;-47
2022/01/12 05:51:51;;;;;;;13.85;8.13;;;;;;;;;;5088442;28;20070;-49
2022/01/12 05:54:17;;;;;;;12.77;7.72;;;;;;;;;;5087772;28;20036;-48
2022/01/12 05:56:44;;;;;;;12.73;7.85;;;;;;;;;;5087663;28;20028;-49
2022/01/12 05:59:11;;;;;;;14.95;8.18;;;;;;;;;;5088460;28;20131;-48
2022/01/12 06:01:38;;;;;;;11.98;7.38;;;;;;;;;;5087639;28;20426;-48
2022/01/12 06:04:04;;;;;;;12.77;7.50;;;;;;;;;;5083740;28;20503;-47
2022/01/12 06:06:30;;;;;;;12.82;7.78;;;;;;;;;;5086856;28;20506;-51
2022/01/12 06:08:56;;;;;;;13.27;7.95;;;;;;;;;;5069621;28;20061;-49
2022/01/12 06:11:23;;;;;;;14.15;8.77;;;;;;;;;;5088035;28;20016;-51
2022/01/12 06:13:50;;;;;;;14.95;8.82;;;;;;;;;;5087261;28;20024;-48
2022/01/12 06:16:16;;;;;;;13.00;8.63;;;;;;;;;;5097517;28;20035;-48
2022/01/12 06:18:43;;;;;;;14.45;8.80;;;;;;;;;;5088441;28;20422;-48
2022/01/12 06:21:09;;;;;;;15.95;8.98;;;;;;;;;;5087863;28;20053;-50
2022/01/12 06:23:35;;;;;;;15.65;9.38;;;;;;;;;;5069186;28;20186;-51
2022/01/12 06:26:03;;;;;;;13.07;8.70;;;;;;;;;;5089263;28;20122;-48
2022/01/12 06:31:12;;;;;;;13.25;8.60;;;;;;;;;;5087649;28;20031;-51
2022/01/12 06:33:40;;;;;;;14.38;8.73;;;;;;;;;;5087506;28;20020;-49
2022/01/12 06:36:08;;;;;;;13.88;8.57;;;;;;;;;;5086466;28;20039;-48
2022/01/12 06:38:35;;;;;;;14.95;8.68;;;;;;;;;;5085565;28;20031;-52
2022/01/12 06:41:03;;;;;;;14.77;8.95;;;;;;;;;;5087192;28;20046;-48
2022/01/12 06:43:30;;;;;;;16.48;9.55;;;;;;;;;;5085247;28;20394;-48
2022/01/12 06:45:57;;;;;;;20.08;9.52;;;;;;;;;;5087635;28;20020;-47
2022/01/12 06:48:24;;;;;;;17.42;9.90;;;;;;;;;;5086459;28;20119;-50
2022/01/12 06:50:50;;;;;;;18.10;11.13;;;;;;;;;;5087353;28;20020;-48
2022/01/12 06:53:17;;;;;;;21.17;11.57;;;;;;;;;;5093110;28;20051;-51
2022/01/12 06:55:44;;;;;;;21.23;10.75;;;;;;;;;;5107915;28;20020;-53
2022/01/12 06:58:10;;;;;;;19.02;11.23;;;;;;;;;;5095418;28;20039;-48
2022/01/12 07:00:36;;;;;;;23.08;12.55;;;;;;;;;;5087098;28;20031;-50
2022/01/12 07:03:02;;;;;;;26.17;12.95;;;;;;;;;;5084199;28;20042;-50
2022/01/12 07:05:28;;;;;;;27.77;14.43;;;;;;;;;;5091262;28;20028;-50
2022/01/12 07:07:54;;;;;;;26.65;14.13;;;;;;;;;;5091491;28;20585;-47
2022/01/12 07:10:20;;;;;;;26.30;14.77;;;;;;;;;;5108528;28;20011;-51
2022/01/12 07:12:46;;;;;;;24.38;13.48;;;;;;;;;;5098758;28;20047;-48
2022/01/12 07:15:12;;;;;;;30.70;15.55;;;;;;;;;;5088947;28;20099;-52
2022/01/12 07:17:38;;;;;;;32.33;15.32;;;;;;;;;;5087408;28;20055;-52
2022/01/12 07:20:05;;;;;;;29.02;15.25;;;;;;;;;;5090409;28;20580;-51
2022/01/12 07:22:31;;;;;;;27.48;13.77;;;;;;;;;;5086535;28;20452;-50
2022/01/12 07:24:58;;;;;;;22.55;12.90;;;;;;;;;;5087779;28;20114;-50
2022/01/12 07:27:24;;;;;;;23.15;12.75;;;;;;;;;;5086548;28;20101;-50
2022/01/12 07:29:50;;;;;;;20.42;11.60;;;;;;;;;;5087651;28;20035;-51
2022/01/12 07:32:17;;;;;;;18.83;11.18;;;;;;;;;;5088459;28;20031;-51
2022/01/12 07:34:43;;;;;;;17.23;9.68;;;;;;;;;;5087234;28;20028;-52
2022/01/12 07:37:10;;;;;;;15.88;9.07;;;;;;;;;;5084528;28;20024;-52
2022/01/12 07:39:36;;;;;;;15.00;8.43;;;;;;;;;;5083088;28;20066;-53
2022/01/12 07:42:03;;;;;;;13.90;7.85;;;;;;;;;;5072596;28;20035;-49
2022/01/12 07:44:30;;;;;;;15.15;8.68;;;;;;;;;;5087370;28;20077;-52
2022/01/12 07:46:58;;;;;;;18.20;9.25;;;;;;;;;;5083432;28;20081;-49
2022/01/12 07:49:24;;;;;;;17.75;9.73;;;;;;;;;;5085525;28;20070;-52
2022/01/12 07:51:50;;;;;;;22.45;10.70;;;;;;;;;;5087251;28;20401;-52
2022/01/12 07:54:16;;;;;;;19.42;9.75;;;;;;;;;;5098294;28;20071;-49
2022/01/12 07:56:42;;;;;;;18.90;9.65;;;;;;;;;;5095940;28;20852;-48
2022/01/12 07:59:08;;;;;;;19.35;10.45;;;;;;;;;;5087413;28;20024;-49
2022/01/12 08:01:34;;;;;;;18.00;10.10;;;;;;;;;;5068019;28;20429;-49
2022/01/12 08:04:00;;;;;;;20.63;10.73;;;;;;;;;;5094448;28;20024;-48
2022/01/12 08:06:26;;;;;;;21.08;10.27;;;;;;;;;;5097265;28;20572;-50
2022/01/12 08:08:52;;;;;;;21.25;11.00;;;;;;;;;;5107351;28;20038;-50
2022/01/12 08:11:18;;;;;;;19.08;10.07;;;;;;;;;;5101702;28;20371;-49
2022/01/12 08:13:45;;;;;;;17.65;10.40;;;;;;;;;;5088532;28;20032;-51
2022/01/12 08:16:12;;;;;;;16.30;9.27;;;;;;;;;;5099291;28;20030;-52
2022/01/12 08:18:38;;;;;;;19.10;9.82;;;;;;;;;;5102554;28;20035;-53
2022/01/12 08:21:06;;;;;;;18.70;10.07;;;;;;;;;;5087100;28;20085;-49
2022/01/12 08:23:32;;;;;;;18.30;9.85;;;;;;;;;;5086368;28;20039;-49
2022/01/12 08:25:58;;;;;;;19.42;10.95;;;;;;;;;;5086443;28;20034;-49
2022/01/12 08:28:24;;;;;;;19.52;10.95;;;;;;;;;;5073487;28;20422;-49
2022/01/12 08:30:50;;;;;;;21.15;12.55;;;;;;;;;;5067857;28;20140;-49
2022/01/12 08:33:17;;;;;;;26.52;14.05;;;;;;;;;;5085531;28;20072;-50
2022/01/12 08:35:43;;;;;;;22.92;14.38;;;;;;;;;;5086662;28;20043;-49
2022/01/12 08:38:09;;;;;;;25.88;14.70;;;;;;;;;;5086916;28;20028;-50
2022/01/12 08:40:38;;;;;;;25.42;14.32;;;;;;;;;;5079737;28;20035;-49
2022/01/12 08:43:05;;;;;;;23.20;14.55;;;;;;;;;;5092746;28;20036;-49
2022/01/12 08:45:31;;;;;;;22.27;12.65;;;;;;;;;;5096834;28;20056;-49
2022/01/12 08:47:57;;;;;;;20.60;12.20;;;;;;;;;;5086532;28;20035;-50
2022/01/12 08:50:23;;;;;;;20.48;13.15;;;;;;;;;;5086403;28;20026;-48
2022/01/12 08:52:50;;;;;;;21.02;11.80;;;;;;;;;;5086463;28;20029;-50
2022/01/12 08:55:17;;;;;;;20.00;11.27;;;;;;;;;;5086728;28;20052;-50
2022/01/12 08:57:43;;;;;;;17.00;9.90;;;;;;;;;;5086348;28;20063;-49
2022/01/12 09:00:10;;;;;;;17.60;10.40;;;;;;;;;;5090072;28;20039;-49
2022/01/12 09:02:36;;;;;;;20.17;11.20;;;;;;;;;;5090301;28;20028;-49
2022/01/12 09:05:03;;;;;;;20.58;10.57;;;;;;;;;;5090446;28;20449;-51
2022/01/12 09:07:29;;;;;;;18.55;10.43;;;;;;;;;;5085751;28;20684;-50
2022/01/12 09:09:55;;;;;;;20.48;10.75;;;;;;;;;;5085625;28;20107;-49
2022/01/12 09:12:21;;;;;;;18.05;10.48;;;;;;;;;;5084991;28;20059;-49
2022/01/12 09:14:50;;;;;;;16.77;10.25;;;;;;;;;;5084638;28;20447;-49
2022/01/12 09:17:18;;;;;;;17.95;9.77;;;;;;;;;;5084723;28;20937;-52
2022/01/12 09:19:45;;;;;;;16.65;9.23;;;;;;;;;;5082762;28;20119;-53
2022/01/12 09:22:11;;;;;;;16.55;9.35;;;;;;;;;;5082696;28;20028;-49
2022/01/12 09:24:37;;;;;;;15.93;8.02;;;;;;;;;;5083512;28;20119;-52
2022/01/12 09:27:04;;;;;;;15.88;9.48;;;;;;;;;;5083827;28;20624;-49
2022/01/12 09:29:30;;;;;;;17.13;9.65;;;;;;;;;;5086395;28;20138;-49
2022/01/12 09:31:56;;;;;;;15.50;9.13;;;;;;;;;;5086880;28;20024;-49
2022/01/12 09:34:22;;;;;;;17.30;9.98;;;;;;;;;;5087208;28;20097;-53
2022/01/12 09:36:48;;;;;;;20.48;10.85;;;;;;;;;;5088971;28;20518;-50
2022/01/12 09:39:14;;;;;;;15.80;9.27;;;;;;;;;;5089509;28;20542;-52
2022/01/12 09:41:40;;;;;;;17.52;9.88;;;;;;;;;;5083201;28;20610;-51
2022/01/12 09:44:06;;;;;;;17.17;9.73;;;;;;;;;;5089169;28;20056;-48
2022/01/12 09:46:32;;;;;;;19.50;10.52;;;;;;;;;;5087571;28;20036;-50
2022/01/12 09:49:01;;;;;;;19.58;10.15;;;;;;;;;;5085568;28;20027;-49
2022/01/12 09:51:27;;;;;;;18.85;9.93;;;;;;;;;;5088735;28;20024;-51
2022/01/12 09:53:53;;;;;;;17.85;9.23;;;;;;;;;;5109493;28;20367;-50
2022/01/12 09:56:24;;;;;;;17.90;9.60;;;;;;;;;;5086569;28;20028;-50
2022/01/12 09:58:53;;;;;;;17.65;10.27;;;;;;;;;;5089702;28;20032;-51
2022/01/12 10:01:39;;;;;;;19.15;10.18;;;;;;;;;;5109995;28;20402;-53
2022/01/12 10:04:26;;;;;;;22.38;12.15;;;;;;;;;;5075287;28;20036;-50
2022/01/12 10:06:53;;;;;;;21.75;12.45;;;;;;;;;;5089577;28;20068;-50
2022/01/12 10:09:26;;;;;;;18.25;10.20;;;;;;;;;;5089511;28;20127;-49
2022/01/12 10:11:53;;;;;;;23.08;11.02;;;;;;;;;;5086405;28;20028;-49
2022/01/12 10:14:19;;;;;;;19.38;10.35;;;;;;;;;;5088909;28;20024;-50
2022/01/12 10:16:56;;;;;;;19.35;10.25;;;;;;;;;;5088622;28;20387;-52
2022/01/12 10:19:26;;;;;;;28.33;10.75;;;;;;;;;;5094971;28;20028;-53
2022/01/12 10:21:52;;;;;;;21.52;10.85;;;;;;;;;;5090724;28;20723;-53
2022/01/12 10:24:20;;;;;;;20.60;10.80;;;;;;;;;;5087508;28;20024;-50
2022/01/12 10:26:46;;;;;;;21.05;11.00;;;;;;;;;;5086055;28;20023;-50
2022/01/12 10:29:20;;;;;;;18.88;10.70;;;;;;;;;;5088305;28;20049;-53
2022/01/12 10:31:46;;;;;;;17.95;9.90;;;;;;;;;;5086531;28;20513;-53
2022/01/12 10:34:12;;;;;;;16.00;9.02;;;;;;;;;;5089390;28;20414;-53
2022/01/12 10:36:41;;;;;;;15.75;9.27;;;;;;;;;;5089292;28;20035;-53
2022/01/12 10:39:12;;;;;;;18.85;9.77;;;;;;;;;;5087253;28;20035;-53
2022/01/12 10:41:52;;;;;;;17.98;9.35;;;;;;;;;;5084621;28;20548;-54
2022/01/12 10:44:22;;;;;;;16.00;8.60;;;;;;;;;;5101520;28;20028;-53
2022/01/12 10:46:48;;;;;;;15.38;9.05;;;;;;;;;;5088323;28;20080;-53
2022/01/12 10:49:21;;;;;;;15.30;8.73;;;;;;;;;;5080429;28;20480;-50
2022/01/12 10:51:56;;;;;;;15.98;9.63;;;;;;;;;;5085515;28;20024;-53
2022/01/12 10:54:23;;;;;;;18.20;9.98;;;;;;;;;;5086846;28;20020;-53
2022/01/12 10:56:49;;;;;;;16.20;9.68;;;;;;;;;;5084995;28;20691;-54
2022/01/12 10:59:18;;;;;;;15.00;8.77;;;;;;;;;;5088263;28;20043;-55
2022/01/12 11:01:45;;;;;;;17.45;10.70;;;;;;;;;;5090572;28;20030;-54
2022/01/12 11:04:11;;;;;;;17.95;10.85;;;;;;;;;;5087790;28;20030;-53
2022/01/12 11:06:37;;;;;;;16.20;10.20;;;;;;;;;;5085173;28;20124;-55
2022/01/12 11:09:04;;;;;;;14.30;9.27;;;;;;;;;;5084885;28;20028;-54
2022/01/12 11:11:30;;;;;;;15.95;9.38;;;;;;;;;;5093682;28;20102;-54
2022/01/12 11:13:56;;;;;;;16.60;9.57;;;;;;;;;;5086257;28;20031;-53
2022/01/12 11:16:23;;;;;;;13.88;9.15;;;;;;;;;;5087323;28;20027;-55
2022/01/12 11:18:50;;;;;;;14.85;9.07;;;;;;;;;;5082744;28;20075;-54
2022/01/12 11:21:16;;;;;;;15.52;9.07;;;;;;;;;;5092388;28;20097;-55
2022/01/12 11:23:43;;;;;;;18.98;10.80;;;;;;;;;;5085628;28;20043;-53
2022/01/12 11:26:20;;;;;;;17.75;10.15;;;;;;;;;;5085992;28;20032;-54
2022/01/12 11:28:48;;;;;;;19.50;10.40;;;;;;;;;;5090015;28;20116;-54
2022/01/12 11:31:18;;;;;;;26.65;14.43;;;;;;;;;;5087231;28;20032;-55
2022/01/12 11:33:45;;;;;;;24.67;14.10;;;;;;;;;;5100085;28;20028;-56
2022/01/12 11:36:14;;;;;;;23.20;12.80;;;;;;;;;;5087838;28;20028;-56
2022/01/12 11:38:40;;;;;;;23.25;13.25;;;;;;;;;;5087021;28;20107;-56
2022/01/12 11:41:11;;;;;;;20.73;12.45;;;;;;;;;;5085223;28;20495;-55
2022/01/12 11:43:48;;;;;;;20.05;11.50;;;;;;;;;;5084723;28;20117;-55
2022/01/12 11:46:19;;;;;;;22.08;12.90;;;;;;;;;;5088295;28;20394;-55
2022/01/12 11:48:47;;;;;;;19.40;11.23;;;;;;;;;;5088138;28;20028;-55
2022/01/12 11:51:14;;;;;;;18.58;11.85;;;;;;;;;;5096502;28;20031;-54
2022/01/12 11:53:47;;;;;;;21.13;11.95;;;;;;;;;;5097042;28;20465;-55
2022/01/12 11:56:15;;;;;;;16.10;10.27;;;;;;;;;;5099866;28;20023;-52
2022/01/12 11:58:51;;;;;;;16.58;10.38;;;;;;;;;;5093193;28;20680;-53
2022/01/12 12:01:17;;;;;;;13.63;8.38;;;;;;;;;;5107545;28;20024;-53
2022/01/12 12:03:55;;;;;;;14.95;9.02;;;;;;;;;;5089793;28;20044;-54
2022/01/12 12:06:21;;;;;;;16.92;9.93;;;;;;;;;;5094713;28;20020;-53
2022/01/12 12:09:09;;;;;;;18.02;10.10;;;;;;;;;;5090048;28;20228;-51
2022/01/12 12:11:35;;;;;;;16.73;10.18;;;;;;;;;;5090749;28;20072;-49
2022/01/12 12:14:02;;;;;;;15.63;9.07;;;;;;;;;;5085462;28;20031;-50
2022/01/12 12:16:29;;;;;;;16.13;9.80;;;;;;;;;;5083575;28;20020;-53
2022/01/12 12:18:57;;;;;;;15.35;9.30;;;;;;;;;;5085005;28;20032;-52
2022/01/12 12:21:23;;;;;;;15.00;9.30;;;;;;;;;;5085211;28;20032;-50
2022/01/12 12:23:49;;;;;;;19.40;11.48;;;;;;;;;;5066590;28;20028;-51
2022/01/12 12:26:18;;;;;;;21.27;12.45;;;;;;;;;;5084789;28;20021;-49
2022/01/12 12:28:54;;;;;;;17.90;11.38;;;;;;;;;;5083511;28;20457;-51
2022/01/12 12:31:24;;;;;;;20.02;11.30;;;;;;;;;;5084140;28;20032;-50
2022/01/12 12:34:04;;;;;;;19.95;11.48;;;;;;;;;;5084483;28;20016;-54
2022/01/12 12:36:31;;;;;;;17.10;9.93;;;;;;;;;;5087771;28;20020;-53
2022/01/12 12:39:24;;;;;;;16.15;10.35;;;;;;;;;;5089033;28;20028;-54
2022/01/12 12:41:51;;;;;;;18.63;11.25;;;;;;;;;;5084648;28;20530;-51
2022/01/12 12:44:27;;;;;;;16.23;9.85;;;;;;;;;;5088514;28;20024;-51
2022/01/12 12:47:05;;;;;;;15.90;9.07;;;;;;;;;;5088890;28;20028;-52
2022/01/12 12:49:30;;;;;;;18.00;10.02;;;;;;;;;;5088234;28;20028;-51
2022/01/12 12:52:01;;;;;;;17.98;9.43;;;;;;;;;;5088975;28;20027;-52
2022/01/12 12:54:27;;;;;;;16.33;10.20;;;;;;;;;;5088784;28;20028;-52
2022/01/12 12:56:59;;;;;;;17.50;11.02;;;;;;;;;;5088297;28;20022;-55
2022/01/12 12:59:25;;;;;;;18.25;11.10;;;;;;;;;;5088399;28;20032;-51
2022/01/12 13:01:51;;;;;;;20.17;10.70;;;;;;;;;;5087971;28;20020;-52
2022/01/12 13:04:21;;;;;;;20.73;10.27;;;;;;;;;;5088132;28;20099;-51
2022/01/12 13:06:47;;;;;;;19.92;11.10;;;;;;;;;;5087842;28;20070;-55
2022/01/12 13:09:15;;;;;;;20.63;11.45;;;;;;;;;;5087818;28;20027;-52
2022/01/12 13:11:49;;;;;;;17.08;10.63;;;;;;;;;;5087331;28;20032;-53
2022/01/12 13:14:16;;;;;;;22.13;13.45;;;;;;;;;;5067670;28;20101;-53
2022/01/12 13:16:46;;;;;;;28.23;14.82;;;;;;;;;;5068346;28;20665;-51
2022/01/12 13:19:33;;;;;;;23.50;12.55;;;;;;;;;;5088308;28;20046;-53
2022/01/12 13:22:00;;;;;;;19.98;11.05;;;;;;;;;;5086982;28;20024;-51
2022/01/12 13:24:27;;;;;;;18.20;10.15;;;;;;;;;;5088150;28;20423;-50
2022/01/12 13:26:56;;;;;;;18.35;10.20;;;;;;;;;;5087628;28;20024;-52
2022/01/12 13:29:22;;;;;;;17.90;10.38;;;;;;;;;;5087320;28;20086;-52
2022/01/12 13:31:48;;;;;;;18.33;9.93;;;;;;;;;;5087767;28;20496;-53
2022/01/12 13:34:18;;;;;;;17.98;10.35;;;;;;;;;;5087962;28;20035;-54
2022/01/12 13:36:50;;;;;;;15.13;10.07;;;;;;;;;;5087667;28;20020;-54
2022/01/12 13:39:16;;;;;;;16.88;10.45;;;;;;;;;;5087508;28;20020;-51
2022/01/12 13:41:47;;;;;;;13.90;8.32;;;;;;;;;;5087040;28;20065;-54
2022/01/12 13:44:17;;;;;;;16.42;9.25;;;;;;;;;;5067135;28;20021;-53
2022/01/12 13:47:03;;;;;;;15.20;8.90;;;;;;;;;;5065822;28;20012;-51
2022/01/12 13:49:30;;;;;;;15.30;9.88;;;;;;;;;;5067016;28;20036;-51
2022/01/12 13:51:56;;;;;;;13.23;8.68;;;;;;;;;;5067715;28;20024;-52
2022/01/12 13:54:24;;;;;;;12.13;7.90;;;;;;;;;;5066872;28;20021;-51
2022/01/12 13:56:51;;;;;;;11.18;6.93;;;;;;;;;;5067690;28;20025;-50
2022/01/12 13:59:18;;;;;;;12.65;8.55;;;;;;;;;;5086952;28;20028;-51
2022/01/12 14:01:45;;;;;;;12.30;7.93;;;;;;;;;;5087105;28;20016;-51
2022/01/12 14:04:15;;;;;;;11.80;7.50;;;;;;;;;;5086997;28;20021;-51
2022/01/12 14:06:46;;;;;;;11.90;7.78;;;;;;;;;;5087081;28;20466;-53
2022/01/12 14:09:28;;;;;;;10.93;7.28;;;;;;;;;;5086649;28;20499;-51
2022/01/12 14:11:56;;;;;;;11.10;7.47;;;;;;;;;;5086889;28;20276;-50
2022/01/12 14:14:23;;;;;;;12.57;8.25;;;;;;;;;;5086670;28;20259;-53
2022/01/12 14:16:49;;;;;;;12.73;8.27;;;;;;;;;;5086935;28;20031;-50
2022/01/12 14:19:15;;;;;;;11.90;6.97;;;;;;;;;;5086787;28;20107;-52
2022/01/12 14:21:53;;;;;;;11.07;7.13;;;;;;;;;;5086253;28;20020;-50
2022/01/12 14:24:20;;;;;;;10.65;6.57;;;;;;;;;;5086513;28;20452;-52
2022/01/12 14:26:46;;;;;;;8.65;6.13;;;;;;;;;;5085975;28;20095;-55
2022/01/12 14:29:12;;;;;;;9.90;6.43;;;;;;;;;;5086150;28;20049;-54
2022/01/12 14:31:40;;;;;;;10.85;6.93;;;;;;;;;;5086588;28;20070;-52
2022/01/12 14:34:07;;;;;;;10.95;6.88;;;;;;;;;;5086555;28;20025;-52
2022/01/12 14:36:33;;;;;;;11.70;7.22;;;;;;;;;;5086042;28;20028;-51
2022/01/12 14:38:59;;;;;;;11.85;7.00;;;;;;;;;;5086277;28;20028;-51
2022/01/12 14:41:26;;;;;;;10.95;6.55;;;;;;;;;;5086731;28;20074;-52
2022/01/12 14:43:52;;;;;;;9.93;6.80;;;;;;;;;;5085755;28;20024;-52
2022/01/12 14:46:20;;;;;;;12.00;7.57;;;;;;;;;;5085977;28;20084;-53
2022/01/12 14:48:47;;;;;;;11.23;7.63;;;;;;;;;;5067901;28;20020;-51
2022/01/12 14:51:14;;;;;;;14.75;8.98;;;;;;;;;;5086416;28;20020;-54
2022/01/12 14:53:42;;;;;;;15.88;9.25;;;;;;;;;;5067779;28;20381;-53
2022/01/12 14:56:09;;;;;;;13.68;8.10;;;;;;;;;;5086233;28;20051;-51
2022/01/12 14:58:36;;;;;;;13.70;8.32;;;;;;;;;;5085237;28;20065;-53
2022/01/12 15:01:02;;;;;;;12.82;8.45;;;;;;;;;;5085814;28;20032;-50
2022/01/12 15:03:29;;;;;;;11.82;7.75;;;;;;;;;;5085932;28;20052;-55
2022/01/12 15:06:03;;;;;;;14.40;8.90;;;;;;;;;;5086238;28;20085;-54
2022/01/12 15:08:29;;;;;;;14.17;9.37;;;;;;;;;;5085174;28;20039;-51
2022/01/12 15:10:55;;;;;;;20.48;10.48;;;;;;;;;;5086643;28;20562;-53
2022/01/12 15:13:26;;;;;;;25.60;13.10;;;;;;;;;;5085150;28;20495;-54
2022/01/12 15:15:53;;;;;;;27.52;12.52;;;;;;;;;;5084759;28;20028;-51
2022/01/12 15:18:23;;;;;;;23.42;12.05;;;;;;;;;;5085930;28;20024;-54
2022/01/12 15:20:53;;;;;;;25.75;13.55;;;;;;;;;;5084904;28;20032;-53
2022/01/12 15:23:20;;;;;;;22.48;12.02;;;;;;;;;;5085656;28;20028;-53
2022/01/12 15:25:48;;;;;;;22.45;11.90;;;;;;;;;;5085576;28;20025;-53
2022/01/12 15:28:14;;;;;;;19.75;11.18;;;;;;;;;;5084999;28;20399;-53
2022/01/12 15:30:42;;;;;;;22.35;11.82;;;;;;;;;;5085132;28;20039;-54
2022/01/12 15:33:10;;;;;;;19.40;11.18;;;;;;;;;;5085427;28;20020;-51
2022/01/12 15:35:37;;;;;;;19.63;10.32;;;;;;;;;;5085264;28;20086;-53
2022/01/12 15:38:04;;;;;;;16.63;9.82;;;;;;;;;;5085269;28;20099;-55
2022/01/12 15:40:31;;;;;;;17.95;10.35;;;;;;;;;;5084900;28;20085;-51
2022/01/12 15:42:58;;;;;;;19.02;10.85;;;;;;;;;;5086175;28;20024;-51
2022/01/12 15:45:24;;;;;;;19.23;10.60;;;;;;;;;;5086021;28;20662;-52
2022/01/12 15:47:50;;;;;;;20.55;12.20;;;;;;;;;;5086176;28;20054;-51
2022/01/12 15:50:17;;;;;;;17.92;10.27;;;;;;;;;;5086628;28;20388;-51
2022/01/12 15:52:44;;;;;;;19.55;11.82;;;;;;;;;;5085911;28;20032;-52